sensor_id;sensor_type;location;lat;lon;timestamp;P1;durP1;ratioP1;P2;durP2;ratioP2
42066;SDS011;27734;47.028;28.820;2023-04-07T00:01:09;51.93;;;30.80;;
42066;SDS011;27734;47.028;28.820;2023-04-07T00:03:42;55.37;;;32.23;;
42066;SDS011;27734;47.028;28.820;2023-04-07T00:06:14;60.90;;;34.15;;
42066;SDS011;27734;47.028;28.820;2023-04-07T00:08:46;59.13;;;34.33;;
42066;SDS011;27734;47.028;28.820;2023-04-07T00:11:18;58.50;;;34.90;;
42066;SDS011;27734;47.028;28.820;2023-04-07T00:13:51;56.73;;;33.93;;
42066;SDS011;27734;47.028;28.820;2023-04-07T00:16:23;57.57;;;34.20;;
42066;SDS011;27734;47.028;28.820;2023-04-07T00:18:55;56.40;;;33.20;;
42066;SDS011;27734;47.028;28.820;2023-04-07T00:21:28;63.17;;;35.23;;
42066;SDS011;27734;47.028;28.820;2023-04-07T00:24:00;63.23;;;33.80;;
42066;SDS011;27734;47.028;28.820;2023-04-07T00:26:33;53.70;;;32.30;;
42066;SDS011;27734;47.028;28.820;2023-04-07T00:29:05;57.00;;;33.03;;
42066;SDS011;27734;47.028;28.820;2023-04-07T00:31:37;53.10;;;30.73;;
42066;SDS011;27734;47.028;28.820;2023-04-07T00:34:09;49.47;;;30.00;;
42066;SDS011;27734;47.028;28.820;2023-04-07T00:36:43;52.40;;;29.90;;
42066;SDS011;27734;47.028;28.820;2023-04-07T00:39:20;47.40;;;28.90;;
42066;SDS011;27734;47.028;28.820;2023-04-07T00:41:52;51.77;;;29.90;;
42066;SDS011;27734;47.028;28.820;2023-04-07T00:44:24;49.33;;;28.10;;
42066;SDS011;27734;47.028;28.820;2023-04-07T00:46:57;49.53;;;28.83;;
42066;SDS011;27734;47.028;28.820;2023-04-07T00:49:29;49.17;;;27.40;;
42066;SDS011;27734;47.028;28.820;2023-04-07T00:52:02;48.03;;;28.13;;
42066;SDS011;27734;47.028;28.820;2023-04-07T00:54:35;48.90;;;27.45;;
42066;SDS011;27734;47.028;28.820;2023-04-07T00:57:08;49.27;;;27.97;;
42066;SDS011;27734;47.028;28.820;2023-04-07T00:59:41;45.57;;;26.17;;
42066;SDS011;27734;47.028;28.820;2023-04-07T01:02:15;45.20;;;26.23;;
42066;SDS011;27734;47.028;28.820;2023-04-07T01:04:53;43.87;;;26.57;;
42066;SDS011;27734;47.028;28.820;2023-04-07T01:07:33;43.80;;;26.47;;
42066;SDS011;27734;47.028;28.820;2023-04-07T01:10:16;48.20;;;27.83;;
42066;SDS011;27734;47.028;28.820;2023-04-07T01:13:03;50.63;;;28.70;;
42066;SDS011;27734;47.028;28.820;2023-04-07T01:15:41;55.33;;;29.27;;
42066;SDS011;27734;47.028;28.820;2023-04-07T01:18:19;52.93;;;30.07;;
42066;SDS011;27734;47.028;28.820;2023-04-07T01:20:58;51.77;;;29.50;;
42066;SDS011;27734;47.028;28.820;2023-04-07T01:23:38;49.10;;;27.97;;
42066;SDS011;27734;47.028;28.820;2023-04-07T01:26:22;51.87;;;28.83;;
42066;SDS011;27734;47.028;28.820;2023-04-07T01:32:15;53.03;;;30.17;;
42066;SDS011;27734;47.028;28.820;2023-04-07T01:34:49;52.80;;;30.13;;
42066;SDS011;27734;47.028;28.820;2023-04-07T01:37:25;54.30;;;28.63;;
42066;SDS011;27734;47.028;28.820;2023-04-07T01:39:58;51.23;;;29.17;;
42066;SDS011;27734;47.028;28.820;2023-04-07T01:42:30;51.27;;;29.73;;
42066;SDS011;27734;47.028;28.820;2023-04-07T01:45:05;50.83;;;29.67;;
42066;SDS011;27734;47.028;28.820;2023-04-07T01:47:40;49.50;;;29.60;;
42066;SDS011;27734;47.028;28.820;2023-04-07T01:50:13;56.70;;;30.03;;
42066;SDS011;27734;47.028;28.820;2023-04-07T01:52:46;55.20;;;31.13;;
42066;SDS011;27734;47.028;28.820;2023-04-07T01:55:19;51.70;;;29.50;;
42066;SDS011;27734;47.028;28.820;2023-04-07T01:58:04;52.03;;;28.60;;
42066;SDS011;27734;47.028;28.820;2023-04-07T02:00:38;54.40;;;29.90;;
42066;SDS011;27734;47.028;28.820;2023-04-07T02:03:19;53.43;;;29.13;;
42066;SDS011;27734;47.028;28.820;2023-04-07T02:05:53;50.70;;;28.30;;
42066;SDS011;27734;47.028;28.820;2023-04-07T02:08:29;53.40;;;28.67;;
42066;SDS011;27734;47.028;28.820;2023-04-07T02:11:05;57.03;;;30.00;;
42066;SDS011;27734;47.028;28.820;2023-04-07T02:13:40;50.00;;;26.87;;
42066;SDS011;27734;47.028;28.820;2023-04-07T02:16:14;49.75;;;28.10;;
42066;SDS011;27734;47.028;28.820;2023-04-07T02:18:48;52.07;;;27.70;;
42066;SDS011;27734;47.028;28.820;2023-04-07T02:21:21;54.13;;;28.40;;
42066;SDS011;27734;47.028;28.820;2023-04-07T02:23:54;50.03;;;25.53;;
42066;SDS011;27734;47.028;28.820;2023-04-07T02:26:32;51.67;;;26.47;;
42066;SDS011;27734;47.028;28.820;2023-04-07T02:29:05;47.53;;;25.37;;
42066;SDS011;27734;47.028;28.820;2023-04-07T02:31:38;50.33;;;25.77;;
42066;SDS011;27734;47.028;28.820;2023-04-07T02:34:11;52.07;;;24.53;;
42066;SDS011;27734;47.028;28.820;2023-04-07T02:36:43;49.27;;;25.43;;
42066;SDS011;27734;47.028;28.820;2023-04-07T02:39:15;47.13;;;24.90;;
42066;SDS011;27734;47.028;28.820;2023-04-07T02:41:48;54.73;;;27.03;;
42066;SDS011;27734;47.028;28.820;2023-04-07T02:44:20;50.87;;;25.63;;
42066;SDS011;27734;47.028;28.820;2023-04-07T02:46:52;54.63;;;26.43;;
42066;SDS011;27734;47.028;28.820;2023-04-07T02:49:25;52.33;;;25.88;;
42066;SDS011;27734;47.028;28.820;2023-04-07T02:51:58;50.70;;;25.93;;
42066;SDS011;27734;47.028;28.820;2023-04-07T02:54:30;56.20;;;26.95;;
42066;SDS011;27734;47.028;28.820;2023-04-07T02:57:05;53.57;;;25.97;;
42066;SDS011;27734;47.028;28.820;2023-04-07T02:59:38;58.50;;;28.03;;
42066;SDS011;27734;47.028;28.820;2023-04-07T03:02:11;53.97;;;27.67;;
42066;SDS011;27734;47.028;28.820;2023-04-07T03:04:44;56.10;;;28.40;;
42066;SDS011;27734;47.028;28.820;2023-04-07T03:07:16;60.00;;;29.37;;
42066;SDS011;27734;47.028;28.820;2023-04-07T03:09:49;59.40;;;30.43;;
42066;SDS011;27734;47.028;28.820;2023-04-07T03:12:21;58.97;;;31.13;;
42066;SDS011;27734;47.028;28.820;2023-04-07T03:14:54;63.00;;;31.37;;
42066;SDS011;27734;47.028;28.820;2023-04-07T03:17:27;64.53;;;31.65;;
42066;SDS011;27734;47.028;28.820;2023-04-07T03:20:00;61.83;;;31.23;;
42066;SDS011;27734;47.028;28.820;2023-04-07T03:22:34;60.75;;;30.90;;
42066;SDS011;27734;47.028;28.820;2023-04-07T03:25:07;65.93;;;31.20;;
42066;SDS011;27734;47.028;28.820;2023-04-07T03:27:40;65.62;;;31.77;;
42066;SDS011;27734;47.028;28.820;2023-04-07T03:30:13;67.10;;;32.77;;
42066;SDS011;27734;47.028;28.820;2023-04-07T03:32:46;65.50;;;33.13;;
42066;SDS011;27734;47.028;28.820;2023-04-07T03:35:18;69.73;;;33.83;;
42066;SDS011;27734;47.028;28.820;2023-04-07T03:37:51;71.53;;;34.20;;
42066;SDS011;27734;47.028;28.820;2023-04-07T03:40:23;75.27;;;35.70;;
42066;SDS011;27734;47.028;28.820;2023-04-07T03:42:55;72.00;;;35.87;;
42066;SDS011;27734;47.028;28.820;2023-04-07T03:45:27;77.00;;;34.47;;
42066;SDS011;27734;47.028;28.820;2023-04-07T03:48:00;76.47;;;35.10;;
42066;SDS011;27734;47.028;28.820;2023-04-07T03:50:33;72.40;;;34.77;;
42066;SDS011;27734;47.028;28.820;2023-04-07T03:53:15;74.37;;;35.67;;
42066;SDS011;27734;47.028;28.820;2023-04-07T03:55:48;86.77;;;36.87;;
42066;SDS011;27734;47.028;28.820;2023-04-07T03:58:27;77.50;;;35.63;;
42066;SDS011;27734;47.028;28.820;2023-04-07T04:00:59;84.87;;;37.00;;
42066;SDS011;27734;47.028;28.820;2023-04-07T04:03:32;83.73;;;38.23;;
42066;SDS011;27734;47.028;28.820;2023-04-07T04:06:15;79.60;;;36.83;;
42066;SDS011;27734;47.028;28.820;2023-04-07T04:08:49;84.05;;;37.85;;
42066;SDS011;27734;47.028;28.820;2023-04-07T04:11:22;78.10;;;36.87;;
42066;SDS011;27734;47.028;28.820;2023-04-07T04:13:59;82.83;;;36.20;;
42066;SDS011;27734;47.028;28.820;2023-04-07T04:16:31;83.47;;;35.67;;
42066;SDS011;27734;47.028;28.820;2023-04-07T04:19:07;84.73;;;35.93;;
42066;SDS011;27734;47.028;28.820;2023-04-07T04:21:39;85.07;;;36.73;;
42066;SDS011;27734;47.028;28.820;2023-04-07T04:24:12;84.67;;;36.97;;
42066;SDS011;27734;47.028;28.820;2023-04-07T04:26:46;86.40;;;36.27;;
42066;SDS011;27734;47.028;28.820;2023-04-07T04:29:18;86.10;;;37.47;;
42066;SDS011;27734;47.028;28.820;2023-04-07T04:31:51;85.43;;;37.63;;
42066;SDS011;27734;47.028;28.820;2023-04-07T04:34:24;87.03;;;37.27;;
42066;SDS011;27734;47.028;28.820;2023-04-07T04:36:57;89.70;;;37.00;;
42066;SDS011;27734;47.028;28.820;2023-04-07T04:39:29;94.87;;;39.27;;
42066;SDS011;27734;47.028;28.820;2023-04-07T04:42:02;94.00;;;37.90;;
42066;SDS011;27734;47.028;28.820;2023-04-07T04:44:37;90.03;;;38.00;;
42066;SDS011;27734;47.028;28.820;2023-04-07T04:47:10;89.13;;;37.63;;
42066;SDS011;27734;47.028;28.820;2023-04-07T04:49:42;83.47;;;36.67;;
42066;SDS011;27734;47.028;28.820;2023-04-07T04:52:16;88.15;;;39.13;;
42066;SDS011;27734;47.028;28.820;2023-04-07T04:54:52;87.45;;;37.73;;
42066;SDS011;27734;47.028;28.820;2023-04-07T04:57:25;97.20;;;39.27;;
42066;SDS011;27734;47.028;28.820;2023-04-07T04:59:58;97.63;;;38.67;;
42066;SDS011;27734;47.028;28.820;2023-04-07T05:02:32;96.12;;;41.33;;
42066;SDS011;27734;47.028;28.820;2023-04-07T05:05:05;88.83;;;39.63;;
42066;SDS011;27734;47.028;28.820;2023-04-07T05:07:42;103.60;;;41.17;;
42066;SDS011;27734;47.028;28.820;2023-04-07T05:10:15;97.17;;;42.93;;
42066;SDS011;27734;47.028;28.820;2023-04-07T05:12:51;94.00;;;44.10;;
42066;SDS011;27734;47.028;28.820;2023-04-07T05:15:23;100.83;;;43.73;;
42066;SDS011;27734;47.028;28.820;2023-04-07T05:17:56;95.13;;;42.80;;
42066;SDS011;27734;47.028;28.820;2023-04-07T05:20:29;90.97;;;41.48;;
42066;SDS011;27734;47.028;28.820;2023-04-07T05:23:02;97.83;;;42.60;;
42066;SDS011;27734;47.028;28.820;2023-04-07T05:25:36;94.93;;;41.67;;
42066;SDS011;27734;47.028;28.820;2023-04-07T05:28:12;96.87;;;43.27;;
42066;SDS011;27734;47.028;28.820;2023-04-07T05:30:45;105.33;;;44.87;;
42066;SDS011;27734;47.028;28.820;2023-04-07T05:33:19;112.67;;;46.33;;
42066;SDS011;27734;47.028;28.820;2023-04-07T05:35:54;99.93;;;43.83;;
42066;SDS011;27734;47.028;28.820;2023-04-07T05:38:27;102.43;;;45.53;;
42066;SDS011;27734;47.028;28.820;2023-04-07T05:43:35;103.27;;;45.60;;
42066;SDS011;27734;47.028;28.820;2023-04-07T05:46:08;93.27;;;44.30;;
42066;SDS011;27734;47.028;28.820;2023-04-07T05:48:50;90.93;;;41.40;;
42066;SDS011;27734;47.028;28.820;2023-04-07T05:51:29;84.97;;;42.63;;
42066;SDS011;27734;47.028;28.820;2023-04-07T05:54:03;96.50;;;43.97;;
42066;SDS011;27734;47.028;28.820;2023-04-07T05:56:35;94.30;;;43.93;;
42066;SDS011;27734;47.028;28.820;2023-04-07T05:59:08;91.13;;;42.77;;
42066;SDS011;27734;47.028;28.820;2023-04-07T06:01:42;90.50;;;44.20;;
42066;SDS011;27734;47.028;28.820;2023-04-07T06:04:15;92.20;;;42.73;;
42066;SDS011;27734;47.028;28.820;2023-04-07T06:06:49;80.40;;;40.38;;
42066;SDS011;27734;47.028;28.820;2023-04-07T06:09:23;83.30;;;41.27;;
42066;SDS011;27734;47.028;28.820;2023-04-07T06:11:57;83.15;;;40.35;;
42066;SDS011;27734;47.028;28.820;2023-04-07T06:14:36;80.83;;;39.77;;
42066;SDS011;27734;47.028;28.820;2023-04-07T06:17:34;72.43;;;37.77;;
42066;SDS011;27734;47.028;28.820;2023-04-07T06:22:52;79.30;;;38.60;;
42066;SDS011;27734;47.028;28.820;2023-04-07T06:25:29;75.87;;;37.93;;
42066;SDS011;27734;47.028;28.820;2023-04-07T06:28:08;73.57;;;39.50;;
42066;SDS011;27734;47.028;28.820;2023-04-07T06:33:30;72.00;;;36.30;;
42066;SDS011;27734;47.028;28.820;2023-04-07T06:36:02;63.53;;;34.77;;
42066;SDS011;27734;47.028;28.820;2023-04-07T06:38:44;64.97;;;35.03;;
42066;SDS011;27734;47.028;28.820;2023-04-07T06:41:23;63.15;;;33.65;;
42066;SDS011;27734;47.028;28.820;2023-04-07T06:43:59;64.10;;;32.17;;
42066;SDS011;27734;47.028;28.820;2023-04-07T06:46:36;56.70;;;32.23;;
42066;SDS011;27734;47.028;28.820;2023-04-07T06:49:12;61.27;;;34.13;;
42066;SDS011;27734;47.028;28.820;2023-04-07T06:51:54;62.83;;;33.03;;
42066;SDS011;27734;47.028;28.820;2023-04-07T06:54:27;61.13;;;33.30;;
42066;SDS011;27734;47.028;28.820;2023-04-07T06:57:00;58.23;;;31.47;;
42066;SDS011;27734;47.028;28.820;2023-04-07T06:59:41;63.67;;;32.90;;
42066;SDS011;27734;47.028;28.820;2023-04-07T07:02:13;60.30;;;32.67;;
42066;SDS011;27734;47.028;28.820;2023-04-07T07:04:46;65.30;;;34.27;;
42066;SDS011;27734;47.028;28.820;2023-04-07T07:07:19;59.33;;;31.43;;
42066;SDS011;27734;47.028;28.820;2023-04-07T07:09:54;56.47;;;30.33;;
42066;SDS011;27734;47.028;28.820;2023-04-07T07:12:26;58.37;;;32.20;;
42066;SDS011;27734;47.028;28.820;2023-04-07T07:15:04;59.00;;;33.00;;
42066;SDS011;27734;47.028;28.820;2023-04-07T07:17:40;58.23;;;31.77;;
42066;SDS011;27734;47.028;28.820;2023-04-07T07:20:13;60.25;;;32.80;;
42066;SDS011;27734;47.028;28.820;2023-04-07T07:22:45;57.97;;;33.10;;
42066;SDS011;27734;47.028;28.820;2023-04-07T07:25:18;56.03;;;31.70;;
42066;SDS011;27734;47.028;28.820;2023-04-07T07:27:58;57.97;;;30.97;;
42066;SDS011;27734;47.028;28.820;2023-04-07T07:30:30;59.80;;;33.67;;
42066;SDS011;27734;47.028;28.820;2023-04-07T07:33:03;56.87;;;32.53;;
42066;SDS011;27734;47.028;28.820;2023-04-07T07:35:38;57.93;;;34.57;;
42066;SDS011;27734;47.028;28.820;2023-04-07T07:38:11;51.80;;;31.43;;
42066;SDS011;27734;47.028;28.820;2023-04-07T07:40:51;55.73;;;31.33;;
42066;SDS011;27734;47.028;28.820;2023-04-07T07:43:28;55.40;;;31.40;;
42066;SDS011;27734;47.028;28.820;2023-04-07T07:46:14;54.23;;;30.40;;
42066;SDS011;27734;47.028;28.820;2023-04-07T07:51:44;46.10;;;27.63;;
42066;SDS011;27734;47.028;28.820;2023-04-07T07:54:19;49.03;;;28.83;;
42066;SDS011;27734;47.028;28.820;2023-04-07T07:56:51;51.23;;;29.73;;
42066;SDS011;27734;47.028;28.820;2023-04-07T07:59:26;45.50;;;26.57;;
42066;SDS011;27734;47.028;28.820;2023-04-07T08:02:02;42.87;;;24.33;;
42066;SDS011;27734;47.028;28.820;2023-04-07T08:04:39;46.73;;;27.87;;
42066;SDS011;27734;47.028;28.820;2023-04-07T08:07:13;46.08;;;26.37;;
42066;SDS011;27734;47.028;28.820;2023-04-07T08:09:47;46.10;;;27.10;;
42066;SDS011;27734;47.028;28.820;2023-04-07T08:12:20;42.13;;;24.07;;
42066;SDS011;27734;47.028;28.820;2023-04-07T08:14:55;44.40;;;26.10;;
42066;SDS011;27734;47.028;28.820;2023-04-07T08:17:30;44.60;;;26.80;;
42066;SDS011;27734;47.028;28.820;2023-04-07T08:20:13;42.80;;;25.23;;
42066;SDS011;27734;47.028;28.820;2023-04-07T08:22:45;47.53;;;26.97;;
42066;SDS011;27734;47.028;28.820;2023-04-07T08:25:18;41.80;;;25.67;;
42066;SDS011;27734;47.028;28.820;2023-04-07T08:30:23;39.03;;;22.67;;
42066;SDS011;27734;47.028;28.820;2023-04-07T08:32:56;39.43;;;25.03;;
42066;SDS011;27734;47.028;28.820;2023-04-07T08:35:40;39.43;;;24.77;;
42066;SDS011;27734;47.028;28.820;2023-04-07T08:38:13;37.57;;;23.10;;
42066;SDS011;27734;47.028;28.820;2023-04-07T08:40:51;34.80;;;21.40;;
42066;SDS011;27734;47.028;28.820;2023-04-07T08:43:30;37.40;;;22.90;;
42066;SDS011;27734;47.028;28.820;2023-04-07T08:46:10;39.57;;;24.10;;
42066;SDS011;27734;47.028;28.820;2023-04-07T08:48:51;40.73;;;24.47;;
42066;SDS011;27734;47.028;28.820;2023-04-07T08:51:28;34.17;;;20.17;;
42066;SDS011;27734;47.028;28.820;2023-04-07T08:54:04;42.43;;;24.97;;
42066;SDS011;27734;47.028;28.820;2023-04-07T08:56:42;40.87;;;25.53;;
42066;SDS011;27734;47.028;28.820;2023-04-07T08:59:15;43.77;;;25.97;;
42066;SDS011;27734;47.028;28.820;2023-04-07T09:01:55;39.50;;;23.83;;
42066;SDS011;27734;47.028;28.820;2023-04-07T09:04:55;41.23;;;24.50;;
42066;SDS011;27734;47.028;28.820;2023-04-07T09:07:29;34.83;;;22.03;;
42066;SDS011;27734;47.028;28.820;2023-04-07T09:10:04;39.73;;;24.23;;
42066;SDS011;27734;47.028;28.820;2023-04-07T09:12:38;43.23;;;24.93;;
42066;SDS011;27734;47.028;28.820;2023-04-07T09:15:10;37.27;;;23.17;;
42066;SDS011;27734;47.028;28.820;2023-04-07T09:17:45;36.80;;;22.57;;
42066;SDS011;27734;47.028;28.820;2023-04-07T09:20:30;39.87;;;24.67;;
42066;SDS011;27734;47.028;28.820;2023-04-07T09:23:35;38.83;;;22.50;;
42066;SDS011;27734;47.028;28.820;2023-04-07T09:26:22;36.87;;;21.17;;
42066;SDS011;27734;47.028;28.820;2023-04-07T09:28:57;34.00;;;19.93;;
42066;SDS011;27734;47.028;28.820;2023-04-07T09:31:44;31.73;;;20.07;;
42066;SDS011;27734;47.028;28.820;2023-04-07T09:34:24;31.43;;;19.47;;
42066;SDS011;27734;47.028;28.820;2023-04-07T09:36:58;30.23;;;18.10;;
42066;SDS011;27734;47.028;28.820;2023-04-07T09:39:31;26.90;;;16.47;;
42066;SDS011;27734;47.028;28.820;2023-04-07T09:44:42;31.47;;;19.00;;
42066;SDS011;27734;47.028;28.820;2023-04-07T09:47:24;28.30;;;16.67;;
42066;SDS011;27734;47.028;28.820;2023-04-07T09:50:01;27.77;;;17.10;;
42066;SDS011;27734;47.028;28.820;2023-04-07T09:52:51;28.15;;;18.28;;
42066;SDS011;27734;47.028;28.820;2023-04-07T09:55:23;25.53;;;15.93;;
42066;SDS011;27734;47.028;28.820;2023-04-07T09:57:58;28.20;;;15.23;;
42066;SDS011;27734;47.028;28.820;2023-04-07T10:00:32;27.07;;;16.17;;
42066;SDS011;27734;47.028;28.820;2023-04-07T10:03:07;29.17;;;17.20;;
42066;SDS011;27734;47.028;28.820;2023-04-07T10:08:37;28.57;;;17.23;;
42066;SDS011;27734;47.028;28.820;2023-04-07T10:11:21;27.57;;;16.17;;
42066;SDS011;27734;47.028;28.820;2023-04-07T10:14:00;23.87;;;13.93;;
42066;SDS011;27734;47.028;28.820;2023-04-07T10:16:37;26.67;;;16.03;;
42066;SDS011;27734;47.028;28.820;2023-04-07T10:19:16;26.40;;;14.93;;
42066;SDS011;27734;47.028;28.820;2023-04-07T10:21:51;25.43;;;15.10;;
42066;SDS011;27734;47.028;28.820;2023-04-07T10:24:29;24.80;;;14.20;;
42066;SDS011;27734;47.028;28.820;2023-04-07T10:30:28;26.10;;;14.93;;
42066;SDS011;27734;47.028;28.820;2023-04-07T10:33:12;25.33;;;14.17;;
42066;SDS011;27734;47.028;28.820;2023-04-07T10:36:04;25.93;;;14.30;;
42066;SDS011;27734;47.028;28.820;2023-04-07T10:42:08;21.63;;;12.47;;
42066;SDS011;27734;47.028;28.820;2023-04-07T10:45:50;23.77;;;12.63;;
42066;SDS011;27734;47.028;28.820;2023-04-07T10:52:22;26.67;;;15.47;;
42066;SDS011;27734;47.028;28.820;2023-04-07T10:58:14;26.53;;;15.07;;
42066;SDS011;27734;47.028;28.820;2023-04-07T11:04:02;25.77;;;15.43;;
42066;SDS011;27734;47.028;28.820;2023-04-07T11:06:48;28.60;;;17.03;;
42066;SDS011;27734;47.028;28.820;2023-04-07T11:09:25;29.50;;;17.80;;
42066;SDS011;27734;47.028;28.820;2023-04-07T11:12:02;26.80;;;16.35;;
42066;SDS011;27734;47.028;28.820;2023-04-07T11:14:38;26.97;;;16.07;;
42066;SDS011;27734;47.028;28.820;2023-04-07T11:17:15;25.80;;;14.60;;
42066;SDS011;27734;47.028;28.820;2023-04-07T11:19:53;21.10;;;12.53;;
42066;SDS011;27734;47.028;28.820;2023-04-07T11:22:30;22.33;;;12.83;;
42066;SDS011;27734;47.028;28.820;2023-04-07T11:25:04;21.73;;;12.17;;
42066;SDS011;27734;47.028;28.820;2023-04-07T11:27:56;23.27;;;12.90;;
42066;SDS011;27734;47.028;28.820;2023-04-07T11:30:31;23.53;;;13.23;;
42066;SDS011;27734;47.028;28.820;2023-04-07T11:33:09;25.20;;;14.10;;
42066;SDS011;27734;47.028;28.820;2023-04-07T11:36:14;24.07;;;12.63;;
42066;SDS011;27734;47.028;28.820;2023-04-07T11:39:26;20.33;;;11.87;;
42066;SDS011;27734;47.028;28.820;2023-04-07T11:42:10;24.33;;;14.17;;
42066;SDS011;27734;47.028;28.820;2023-04-07T11:45:03;21.90;;;12.27;;
42066;SDS011;27734;47.028;28.820;2023-04-07T11:48:01;22.70;;;13.43;;
42066;SDS011;27734;47.028;28.820;2023-04-07T11:50:59;25.13;;;14.10;;
42066;SDS011;27734;47.028;28.820;2023-04-07T11:53:32;23.93;;;13.57;;
42066;SDS011;27734;47.028;28.820;2023-04-07T11:56:07;27.47;;;13.67;;
42066;SDS011;27734;47.028;28.820;2023-04-07T11:58:48;26.10;;;14.77;;
42066;SDS011;27734;47.028;28.820;2023-04-07T12:01:40;24.40;;;13.80;;
42066;SDS011;27734;47.028;28.820;2023-04-07T12:04:16;24.93;;;14.70;;
42066;SDS011;27734;47.028;28.820;2023-04-07T12:10:13;24.83;;;14.10;;
42066;SDS011;27734;47.028;28.820;2023-04-07T12:13:12;27.27;;;14.53;;
42066;SDS011;27734;47.028;28.820;2023-04-07T12:15:55;28.27;;;14.80;;
42066;SDS011;27734;47.028;28.820;2023-04-07T12:18:33;26.23;;;14.30;;
42066;SDS011;27734;47.028;28.820;2023-04-07T12:21:15;27.00;;;15.13;;
42066;SDS011;27734;47.028;28.820;2023-04-07T12:23:53;26.77;;;15.53;;
42066;SDS011;27734;47.028;28.820;2023-04-07T12:26:26;26.45;;;15.10;;
42066;SDS011;27734;47.028;28.820;2023-04-07T12:29:04;27.13;;;15.00;;
42066;SDS011;27734;47.028;28.820;2023-04-07T12:31:38;30.13;;;15.97;;
42066;SDS011;27734;47.028;28.820;2023-04-07T12:34:17;30.63;;;17.23;;
42066;SDS011;27734;47.028;28.820;2023-04-07T12:39:36;30.00;;;18.40;;
42066;SDS011;27734;47.028;28.820;2023-04-07T12:45:03;27.60;;;16.23;;
42066;SDS011;27734;47.028;28.820;2023-04-07T12:50:38;28.73;;;14.70;;
42066;SDS011;27734;47.028;28.820;2023-04-07T12:53:15;26.53;;;14.50;;
42066;SDS011;27734;47.028;28.820;2023-04-07T12:56:03;24.50;;;13.60;;
42066;SDS011;27734;47.028;28.820;2023-04-07T12:58:36;25.20;;;14.27;;
42066;SDS011;27734;47.028;28.820;2023-04-07T13:01:14;25.90;;;15.07;;
42066;SDS011;27734;47.028;28.820;2023-04-07T13:03:57;22.13;;;12.20;;
42066;SDS011;27734;47.028;28.820;2023-04-07T13:06:32;21.47;;;12.53;;
42066;SDS011;27734;47.028;28.820;2023-04-07T13:09:05;23.33;;;13.73;;
42066;SDS011;27734;47.028;28.820;2023-04-07T13:14:32;23.97;;;13.70;;
42066;SDS011;27734;47.028;28.820;2023-04-07T13:17:11;23.30;;;12.97;;
42066;SDS011;27734;47.028;28.820;2023-04-07T13:19:46;25.37;;;13.90;;
42066;SDS011;27734;47.028;28.820;2023-04-07T13:22:26;21.20;;;11.23;;
42066;SDS011;27734;47.028;28.820;2023-04-07T13:25:00;20.60;;;11.07;;
42066;SDS011;27734;47.028;28.820;2023-04-07T13:30:09;24.70;;;13.27;;
42066;SDS011;27734;47.028;28.820;2023-04-07T13:32:45;24.13;;;13.40;;
42066;SDS011;27734;47.028;28.820;2023-04-07T13:35:19;26.03;;;15.57;;
42066;SDS011;27734;47.028;28.820;2023-04-07T13:38:02;26.87;;;14.37;;
42066;SDS011;27734;47.028;28.820;2023-04-07T13:41:00;26.47;;;14.23;;
42066;SDS011;27734;47.028;28.820;2023-04-07T13:43:37;26.73;;;15.60;;
42066;SDS011;27734;47.028;28.820;2023-04-07T13:46:15;26.20;;;14.50;;
42066;SDS011;27734;47.028;28.820;2023-04-07T13:49:09;27.17;;;15.67;;
42066;SDS011;27734;47.028;28.820;2023-04-07T13:51:56;28.10;;;15.53;;
42066;SDS011;27734;47.028;28.820;2023-04-07T13:54:34;28.03;;;16.37;;
42066;SDS011;27734;47.028;28.820;2023-04-07T14:00:10;30.10;;;16.87;;
42066;SDS011;27734;47.028;28.820;2023-04-07T14:02:54;30.17;;;18.13;;
42066;SDS011;27734;47.028;28.820;2023-04-07T14:05:48;28.87;;;17.83;;
42066;SDS011;27734;47.028;28.820;2023-04-07T14:08:21;32.13;;;17.82;;
42066;SDS011;27734;47.028;28.820;2023-04-07T14:10:55;29.47;;;17.70;;
42066;SDS011;27734;47.028;28.820;2023-04-07T14:13:29;29.03;;;16.97;;
42066;SDS011;27734;47.028;28.820;2023-04-07T14:16:01;32.23;;;17.60;;
42066;SDS011;27734;47.028;28.820;2023-04-07T14:18:34;31.93;;;18.07;;
42066;SDS011;27734;47.028;28.820;2023-04-07T14:21:10;29.87;;;17.70;;
42066;SDS011;27734;47.028;28.820;2023-04-07T14:23:47;29.87;;;18.10;;
42066;SDS011;27734;47.028;28.820;2023-04-07T14:26:22;27.97;;;16.97;;
42066;SDS011;27734;47.028;28.820;2023-04-07T14:29:11;28.17;;;16.67;;
42066;SDS011;27734;47.028;28.820;2023-04-07T14:31:45;29.10;;;16.33;;
42066;SDS011;27734;47.028;28.820;2023-04-07T14:34:19;32.67;;;18.63;;
42066;SDS011;27734;47.028;28.820;2023-04-07T14:36:58;30.00;;;18.10;;
42066;SDS011;27734;47.028;28.820;2023-04-07T14:39:31;31.97;;;18.33;;
42066;SDS011;27734;47.028;28.820;2023-04-07T14:42:07;30.47;;;16.33;;
42066;SDS011;27734;47.028;28.820;2023-04-07T14:44:39;29.07;;;16.30;;
42066;SDS011;27734;47.028;28.820;2023-04-07T14:47:11;29.47;;;16.47;;
42066;SDS011;27734;47.028;28.820;2023-04-07T14:49:46;29.07;;;17.00;;
42066;SDS011;27734;47.028;28.820;2023-04-07T14:52:20;27.77;;;15.60;;
42066;SDS011;27734;47.028;28.820;2023-04-07T14:54:56;28.40;;;15.50;;
42066;SDS011;27734;47.028;28.820;2023-04-07T14:57:29;31.60;;;16.47;;
42066;SDS011;27734;47.028;28.820;2023-04-07T15:00:02;28.70;;;15.60;;
42066;SDS011;27734;47.028;28.820;2023-04-07T15:02:37;26.67;;;15.13;;
42066;SDS011;27734;47.028;28.820;2023-04-07T15:05:10;26.40;;;14.73;;
42066;SDS011;27734;47.028;28.820;2023-04-07T15:07:44;26.43;;;14.50;;
42066;SDS011;27734;47.028;28.820;2023-04-07T15:10:19;25.25;;;13.45;;
42066;SDS011;27734;47.028;28.820;2023-04-07T15:12:52;23.30;;;12.80;;
42066;SDS011;27734;47.028;28.820;2023-04-07T15:15:24;24.00;;;12.97;;
42066;SDS011;27734;47.028;28.820;2023-04-07T15:17:56;24.83;;;13.53;;
42066;SDS011;27734;47.028;28.820;2023-04-07T15:20:28;21.23;;;11.77;;
42066;SDS011;27734;47.028;28.820;2023-04-07T15:23:01;21.63;;;12.33;;
42066;SDS011;27734;47.028;28.820;2023-04-07T15:25:33;22.93;;;12.43;;
42066;SDS011;27734;47.028;28.820;2023-04-07T15:28:06;23.43;;;13.03;;
42066;SDS011;27734;47.028;28.820;2023-04-07T15:30:38;24.07;;;13.67;;
42066;SDS011;27734;47.028;28.820;2023-04-07T15:33:10;25.73;;;15.20;;
42066;SDS011;27734;47.028;28.820;2023-04-07T15:35:43;27.90;;;15.13;;
42066;SDS011;27734;47.028;28.820;2023-04-07T15:38:16;28.65;;;16.40;;
42066;SDS011;27734;47.028;28.820;2023-04-07T15:40:53;30.37;;;18.27;;
42066;SDS011;27734;47.028;28.820;2023-04-07T15:43:30;30.97;;;17.60;;
42066;SDS011;27734;47.028;28.820;2023-04-07T15:48:33;30.20;;;17.70;;
42066;SDS011;27734;47.028;28.820;2023-04-07T15:51:05;30.03;;;18.10;;
42066;SDS011;27734;47.028;28.820;2023-04-07T15:53:37;32.73;;;19.67;;
42066;SDS011;27734;47.028;28.820;2023-04-07T15:56:10;33.83;;;19.17;;
42066;SDS011;27734;47.028;28.820;2023-04-07T15:58:42;34.07;;;20.10;;
42066;SDS011;27734;47.028;28.820;2023-04-07T16:01:14;33.67;;;20.47;;
42066;SDS011;27734;47.028;28.820;2023-04-07T16:03:46;35.63;;;21.13;;